WAT1341 KCHS-KJAX
Flight info
| Callsign | WAT1341 |
|---|---|
| Flight time | 0h 40m |
| Altitude | 28000 |
| Route | LGRHD3 GIPPL LUNNI |
| Aircraft | CL60/M-SADE3FGHIJ3J4J7P2RWXY/HB1D1 |
Departure
| Time | 2026-04-26 17:36 |
|---|---|
| Airport | Charleston International Airport (KCHS) |
Arrival
| Time | 2026-04-26 18:16 |
|---|---|
| Airport | Jacksonville International Airport (KJAX) |
| Time | Latitude | Longitude | Altitude | Speed | Heading |
|---|---|---|---|---|---|
| 2026-04-26 17:07 | 32.89955 | -80.03340 | 57 ft | 0 kts | 327° |
| 2026-04-26 17:26 | 32.89959 | -80.03345 | 57 ft | 3 kts | 294° |
| 2026-04-26 17:26 | 32.89945 | -80.03359 | 56 ft | 2 kts | 185° |
| 2026-04-26 17:27 | 32.89938 | -80.03359 | 56 ft | 0 kts | 179° |
| 2026-04-26 17:28 | 32.89934 | -80.03359 | 56 ft | 3 kts | 178° |
| 2026-04-26 17:28 | 32.89889 | -80.03374 | 56 ft | 9 kts | 224° |
| 2026-04-26 17:28 | 32.89847 | -80.03451 | 56 ft | 11 kts | 238° |
| 2026-04-26 17:28 | 32.89779 | -80.03427 | 55 ft | 13 kts | 118° |
| 2026-04-26 17:29 | 32.89753 | -80.03333 | 55 ft | 12 kts | 108° |
| 2026-04-26 17:29 | 32.89718 | -80.03271 | 55 ft | 15 kts | 139° |
| 2026-04-26 17:29 | 32.89596 | -80.03161 | 54 ft | 14 kts | 161° |
| 2026-04-26 17:29 | 32.89492 | -80.03157 | 52 ft | 16 kts | 186° |
| 2026-04-26 17:30 | 32.89390 | -80.03171 | 51 ft | 11 kts | 186° |
| 2026-04-26 17:30 | 32.89346 | -80.03175 | 50 ft | 0 kts | 186° |
| 2026-04-26 17:35 | 32.89286 | -80.03184 | 49 ft | 12 kts | 189° |
| 2026-04-26 17:35 | 32.89245 | -80.03244 | 49 ft | 10 kts | 304° |
| 2026-04-26 17:36 | 32.89418 | -80.03378 | 52 ft | 72 kts | 328° |
| 2026-04-26 17:36 | 32.90115 | -80.03914 | 176 ft | 157 kts | 328° |
| 2026-04-26 17:36 | 32.91081 | -80.04745 | 1007 ft | 187 kts | 321° |
| 2026-04-26 17:36 | 32.91797 | -80.06185 | 1809 ft | 226 kts | 281° |
| 2026-04-26 17:37 | 32.91565 | -80.08042 | 2579 ft | 240 kts | 246° |
| 2026-04-26 17:37 | 32.90784 | -80.09809 | 3343 ft | 242 kts | 243° |
| 2026-04-26 17:37 | 32.89978 | -80.11594 | 4280 ft | 256 kts | 244° |
| 2026-04-26 17:38 | 32.88336 | -80.15313 | 7149 ft | 270 kts | 245° |
| 2026-04-26 17:38 | 32.87477 | -80.17297 | 8504 ft | 280 kts | 244° |
| 2026-04-26 17:38 | 32.86327 | -80.19147 | 9940 ft | 287 kts | 226° |
| 2026-04-26 17:38 | 32.84654 | -80.20515 | 10980 ft | 310 kts | 206° |
| 2026-04-26 17:39 | 32.82477 | -80.21278 | 11603 ft | 343 kts | 196° |
| 2026-04-26 17:39 | 32.80104 | -80.21970 | 12581 ft | 358 kts | 196° |
| 2026-04-26 17:39 | 32.77660 | -80.22692 | 13763 ft | 364 kts | 196° |
| 2026-04-26 17:39 | 32.75174 | -80.23429 | 14824 ft | 373 kts | 197° |
| 2026-04-26 17:40 | 32.72655 | -80.24178 | 15827 ft | 381 kts | 197° |
| 2026-04-26 17:40 | 32.70943 | -80.24687 | 16473 ft | 386 kts | 197° |
| 2026-04-26 17:40 | 32.67427 | -80.25734 | 17730 ft | 396 kts | 198° |
| 2026-04-26 17:40 | 32.64737 | -80.26536 | 18674 ft | 402 kts | 198° |
| 2026-04-26 17:41 | 32.62037 | -80.27339 | 19706 ft | 404 kts | 199° |
| 2026-04-26 17:41 | 32.59319 | -80.28189 | 20700 ft | 403 kts | 203° |
| 2026-04-26 17:41 | 32.56835 | -80.29604 | 21555 ft | 398 kts | 216° |
| 2026-04-26 17:41 | 32.54487 | -80.31356 | 22376 ft | 402 kts | 217° |
| 2026-04-26 17:42 | 32.52108 | -80.33127 | 23269 ft | 403 kts | 218° |
| 2026-04-26 17:42 | 32.49713 | -80.34907 | 24056 ft | 408 kts | 218° |
| 2026-04-26 17:42 | 32.47296 | -80.36704 | 24662 ft | 415 kts | 218° |
| 2026-04-26 17:42 | 32.44816 | -80.38546 | 25250 ft | 423 kts | 218° |
| 2026-04-26 17:43 | 32.42328 | -80.40390 | 25916 ft | 428 kts | 218° |
| 2026-04-26 17:43 | 32.39817 | -80.42250 | 26562 ft | 431 kts | 218° |
| 2026-04-26 17:43 | 32.37242 | -80.44156 | 27125 ft | 437 kts | 218° |
| 2026-04-26 17:43 | 32.34652 | -80.46072 | 27668 ft | 442 kts | 218° |
| 2026-04-26 17:44 | 32.32052 | -80.47996 | 27906 ft | 448 kts | 218° |
| 2026-04-26 17:44 | 32.29409 | -80.49942 | 27968 ft | 436 kts | 218° |
| 2026-04-26 17:44 | 32.26865 | -80.51811 | 27928 ft | 424 kts | 218° |
| 2026-04-26 17:44 | 32.24413 | -80.53614 | 27947 ft | 418 kts | 218° |
| 2026-04-26 17:45 | 32.21941 | -80.55436 | 27966 ft | 416 kts | 218° |
| 2026-04-26 17:45 | 32.19473 | -80.57253 | 27967 ft | 416 kts | 218° |
| 2026-04-26 17:45 | 32.17039 | -80.59045 | 27963 ft | 416 kts | 218° |
| 2026-04-26 17:45 | 32.14576 | -80.60858 | 27966 ft | 416 kts | 218° |
| 2026-04-26 17:46 | 32.12112 | -80.62669 | 27966 ft | 417 kts | 218° |
| 2026-04-26 17:46 | 32.09656 | -80.64474 | 27962 ft | 418 kts | 218° |
| 2026-04-26 17:46 | 32.07170 | -80.66299 | 27964 ft | 418 kts | 218° |
| 2026-04-26 17:46 | 32.04716 | -80.68100 | 27966 ft | 418 kts | 218° |
| 2026-04-26 17:47 | 32.02233 | -80.69920 | 27954 ft | 418 kts | 218° |
| 2026-04-26 17:47 | 32.00603 | -80.71114 | 27948 ft | 418 kts | 218° |
| 2026-04-26 17:47 | 31.97285 | -80.73544 | 27967 ft | 419 kts | 218° |
| 2026-04-26 17:47 | 31.94834 | -80.75337 | 27941 ft | 420 kts | 218° |
| 2026-04-26 17:48 | 31.92328 | -80.77170 | 27935 ft | 419 kts | 218° |
| 2026-04-26 17:48 | 31.89865 | -80.78970 | 27955 ft | 418 kts | 217° |
| 2026-04-26 17:48 | 31.87395 | -80.80774 | 27936 ft | 419 kts | 218° |
| 2026-04-26 17:48 | 31.84918 | -80.82582 | 27921 ft | 419 kts | 218° |
| 2026-04-26 17:49 | 31.82431 | -80.84396 | 27928 ft | 419 kts | 218° |
| 2026-04-26 17:49 | 31.79968 | -80.86192 | 27926 ft | 419 kts | 218° |
| 2026-04-26 17:49 | 31.77475 | -80.88007 | 27923 ft | 419 kts | 218° |
| 2026-04-26 17:49 | 31.74997 | -80.89811 | 27918 ft | 419 kts | 218° |
| 2026-04-26 17:50 | 31.72506 | -80.91624 | 27912 ft | 420 kts | 218° |
| 2026-04-26 17:50 | 31.70040 | -80.93418 | 27578 ft | 424 kts | 218° |
| 2026-04-26 17:50 | 31.67526 | -80.95244 | 27048 ft | 420 kts | 217° |
| 2026-04-26 17:50 | 31.65074 | -80.97021 | 26530 ft | 413 kts | 217° |
| 2026-04-26 17:51 | 31.62662 | -80.98770 | 26015 ft | 408 kts | 217° |
| 2026-04-26 17:51 | 31.60251 | -81.00517 | 25480 ft | 404 kts | 217° |
| 2026-04-26 17:51 | 31.57867 | -81.02244 | 24960 ft | 400 kts | 217° |
| 2026-04-26 17:51 | 31.55512 | -81.03949 | 24423 ft | 397 kts | 217° |
| 2026-04-26 17:52 | 31.53175 | -81.05640 | 23899 ft | 392 kts | 217° |
| 2026-04-26 17:52 | 31.50872 | -81.07307 | 23383 ft | 389 kts | 217° |
| 2026-04-26 17:52 | 31.48570 | -81.08971 | 22866 ft | 386 kts | 216° |
| 2026-04-26 17:52 | 31.46283 | -81.10624 | 22352 ft | 383 kts | 216° |
| 2026-04-26 17:53 | 31.44026 | -81.12254 | 21841 ft | 381 kts | 216° |
| 2026-04-26 17:53 | 31.41774 | -81.13880 | 21338 ft | 379 kts | 216° |
| 2026-04-26 17:53 | 31.39552 | -81.15479 | 20841 ft | 377 kts | 215° |
| 2026-04-26 17:54 | 31.34560 | -81.17359 | 19844 ft | 383 kts | 195° |
| 2026-04-26 17:54 | 31.31943 | -81.17961 | 19348 ft | 382 kts | 195° |
| 2026-04-26 17:54 | 31.29334 | -81.18568 | 18821 ft | 378 kts | 196° |
| 2026-04-26 17:54 | 31.26741 | -81.19170 | 18371 ft | 377 kts | 195° |
| 2026-04-26 17:55 | 31.24182 | -81.19765 | 17866 ft | 374 kts | 195° |
| 2026-04-26 17:55 | 31.21634 | -81.20357 | 17473 ft | 372 kts | 195° |
| 2026-04-26 17:55 | 31.19108 | -81.20946 | 16861 ft | 373 kts | 195° |
| 2026-04-26 17:55 | 31.16565 | -81.21536 | 16441 ft | 366 kts | 195° |
| 2026-04-26 17:56 | 31.14064 | -81.22119 | 15939 ft | 365 kts | 195° |
| 2026-04-26 17:56 | 31.09113 | -81.23270 | 15003 ft | 360 kts | 194° |
| 2026-04-26 17:57 | 31.04239 | -81.24403 | 14008 ft | 352 kts | 194° |
| 2026-04-26 17:57 | 31.01844 | -81.24960 | 13539 ft | 351 kts | 194° |
| 2026-04-26 17:57 | 30.99447 | -81.25518 | 13073 ft | 349 kts | 193° |
| 2026-04-26 17:57 | 30.97102 | -81.26063 | 12638 ft | 345 kts | 193° |
| 2026-04-26 17:58 | 30.90219 | -81.27660 | 11282 ft | 325 kts | 193° |
| 2026-04-26 17:59 | 30.85848 | -81.28673 | 10435 ft | 315 kts | 193° |
| 2026-04-26 17:59 | 30.83747 | -81.29241 | 10061 ft | 306 kts | 203° |
| 2026-04-26 17:59 | 30.82006 | -81.30515 | 9962 ft | 290 kts | 223° |
| 2026-04-26 17:59 | 30.80488 | -81.32083 | 9953 ft | 293 kts | 225° |
| 2026-04-26 18:00 | 30.78962 | -81.33678 | 9959 ft | 293 kts | 225° |
| 2026-04-26 18:00 | 30.77468 | -81.35254 | 9950 ft | 293 kts | 225° |
| 2026-04-26 18:00 | 30.75958 | -81.36832 | 9970 ft | 292 kts | 225° |
| 2026-04-26 18:00 | 30.74435 | -81.38425 | 10013 ft | 293 kts | 225° |
| 2026-04-26 18:01 | 30.72926 | -81.39999 | 10015 ft | 293 kts | 225° |
| 2026-04-26 18:01 | 30.71390 | -81.41605 | 10016 ft | 293 kts | 225° |
| 2026-04-26 18:01 | 30.69896 | -81.43168 | 10001 ft | 292 kts | 225° |
| 2026-04-26 18:01 | 30.68389 | -81.44759 | 10015 ft | 293 kts | 225° |
| 2026-04-26 18:02 | 30.66871 | -81.46345 | 9998 ft | 292 kts | 226° |
| 2026-04-26 18:02 | 30.65954 | -81.47517 | 10013 ft | 289 kts | 240° |
| 2026-04-26 18:02 | 30.64888 | -81.50352 | 10018 ft | 288 kts | 253° |
| 2026-04-26 18:02 | 30.64212 | -81.52522 | 10004 ft | 288 kts | 252° |
| 2026-04-26 18:03 | 30.63545 | -81.54710 | 9877 ft | 291 kts | 253° |
| 2026-04-26 18:03 | 30.62870 | -81.56912 | 9452 ft | 291 kts | 253° |
| 2026-04-26 18:03 | 30.62201 | -81.59125 | 8999 ft | 287 kts | 253° |
| 2026-04-26 18:03 | 30.61539 | -81.61304 | 8551 ft | 284 kts | 253° |
| 2026-04-26 18:04 | 30.60890 | -81.63443 | 8099 ft | 281 kts | 253° |
| 2026-04-26 18:04 | 30.60249 | -81.65552 | 7647 ft | 279 kts | 252° |
| 2026-04-26 18:04 | 30.59604 | -81.67666 | 7220 ft | 276 kts | 253° |
| 2026-04-26 18:05 | 30.58341 | -81.71790 | 6321 ft | 268 kts | 253° |
| 2026-04-26 18:05 | 30.57730 | -81.73809 | 5843 ft | 263 kts | 253° |
| 2026-04-26 18:05 | 30.57126 | -81.75789 | 5428 ft | 259 kts | 253° |
| 2026-04-26 18:05 | 30.56523 | -81.77758 | 4974 ft | 256 kts | 253° |
| 2026-04-26 18:06 | 30.55937 | -81.79692 | 4521 ft | 252 kts | 252° |
| 2026-04-26 18:06 | 30.55373 | -81.81574 | 4117 ft | 244 kts | 252° |
| 2026-04-26 18:06 | 30.54826 | -81.83359 | 4010 ft | 223 kts | 253° |
| 2026-04-26 18:06 | 30.54309 | -81.85028 | 4034 ft | 221 kts | 253° |
| 2026-04-26 18:07 | 30.53783 | -81.86697 | 4016 ft | 220 kts | 253° |
| 2026-04-26 18:07 | 30.53257 | -81.88358 | 4002 ft | 220 kts | 253° |
| 2026-04-26 18:07 | 30.52729 | -81.90038 | 4013 ft | 222 kts | 253° |
| 2026-04-26 18:07 | 30.52383 | -81.91138 | 3987 ft | 220 kts | 253° |
| 2026-04-26 18:08 | 30.51685 | -81.93375 | 3998 ft | 222 kts | 253° |
| 2026-04-26 18:08 | 30.51159 | -81.95091 | 3928 ft | 226 kts | 253° |
| 2026-04-26 18:08 | 30.50629 | -81.96812 | 3509 ft | 231 kts | 253° |
| 2026-04-26 18:08 | 30.50081 | -81.98572 | 3092 ft | 230 kts | 253° |
| 2026-04-26 18:09 | 30.49547 | -82.00304 | 2646 ft | 232 kts | 253° |
| 2026-04-26 18:09 | 30.49007 | -82.02061 | 2209 ft | 231 kts | 253° |
| 2026-04-26 18:09 | 30.48465 | -82.03774 | 2012 ft | 219 kts | 250° |
| 2026-04-26 18:09 | 30.47547 | -82.05132 | 1987 ft | 222 kts | 215° |
| 2026-04-26 18:10 | 30.46036 | -82.05593 | 1976 ft | 229 kts | 176° |
| 2026-04-26 18:10 | 30.44582 | -82.04918 | 1978 ft | 232 kts | 138° |
| 2026-04-26 18:10 | 30.43719 | -82.03355 | 1989 ft | 230 kts | 106° |
| 2026-04-26 18:10 | 30.43268 | -82.01585 | 1993 ft | 231 kts | 103° |
| 2026-04-26 18:11 | 30.42833 | -81.99792 | 2013 ft | 231 kts | 104° |
| 2026-04-26 18:11 | 30.42400 | -81.97996 | 2007 ft | 229 kts | 103° |
| 2026-04-26 18:11 | 30.41978 | -81.96223 | 2015 ft | 230 kts | 103° |
| 2026-04-26 18:11 | 30.41824 | -81.94395 | 2015 ft | 225 kts | 78° |
| 2026-04-26 18:12 | 30.42293 | -81.92688 | 2016 ft | 221 kts | 62° |
| 2026-04-26 18:12 | 30.42973 | -81.91101 | 2014 ft | 221 kts | 60° |
| 2026-04-26 18:12 | 30.43619 | -81.89474 | 2013 ft | 222 kts | 64° |
| 2026-04-26 18:12 | 30.44176 | -81.87796 | 2010 ft | 223 kts | 67° |
| 2026-04-26 18:13 | 30.44683 | -81.86121 | 2013 ft | 216 kts | 68° |
| 2026-04-26 18:13 | 30.45156 | -81.84538 | 2029 ft | 199 kts | 67° |
| 2026-04-26 18:13 | 30.45612 | -81.83048 | 2026 ft | 192 kts | 66° |
| 2026-04-26 18:13 | 30.45910 | -81.82085 | 2012 ft | 192 kts | 67° |
| 2026-04-26 18:14 | 30.46520 | -81.80115 | 1739 ft | 198 kts | 66° |
| 2026-04-26 18:14 | 30.46981 | -81.78607 | 1515 ft | 195 kts | 67° |
| 2026-04-26 18:14 | 30.47426 | -81.77152 | 1251 ft | 185 kts | 68° |
| 2026-04-26 18:14 | 30.47828 | -81.75833 | 1041 ft | 160 kts | 68° |
| 2026-04-26 18:15 | 30.48167 | -81.74715 | 882 ft | 137 kts | 68° |
| 2026-04-26 18:15 | 30.48480 | -81.73698 | 693 ft | 132 kts | 68° |
| 2026-04-26 18:15 | 30.48787 | -81.72710 | 525 ft | 128 kts | 68° |
| 2026-04-26 18:15 | 30.49084 | -81.71742 | 390 ft | 127 kts | 69° |
| 2026-04-26 18:16 | 30.49379 | -81.70785 | 204 ft | 126 kts | 69° |
| 2026-04-26 18:16 | 30.49905 | -81.69068 | 26 ft | 59 kts | 72° |
| 2026-04-26 18:16 | 30.50001 | -81.68755 | 26 ft | 38 kts | 71° |